CheckWX is a tool to help pilots better visualize weather data.  It is not intended as a substitute for an official pre-flight weather briefing.

06:08:38 UTC

KJAN TAF
Jackson-Medgar Wiley Evers International Airport
Jackson, Mississippi, USA
KJAN 260539Z 2606/2706 VRB03KT P6SM SCT045 FM260700 VRB04KT P6SM BKN025 FM261300 31007KT P6SM VCSH BKN015 FM261800 31012KT P6SM BKN040 FM262100 32012G21KT P6SM BKN070 FM270000 33009KT P6SM SCT050

Feb-26@
06:00 UTC

Feb-26 @ 06:00 UTC

Feb-26@
07:00 UTC

Feb-26 @ 07:00 UTC

KJAN 260539Z 2606/2706 VRB03KT P6SM SCT045
Wind
  • Variable at 3 KTS
Cloud Levels
  • Scattered at 4,500' AGL

Feb-26@
07:00 UTC

Feb-26 @ 07:00 UTC

Feb-26@
13:00 UTC

Feb-26 @ 13:00 UTC

FM260700 VRB04KT P6SM BKN025

From

From Standard forecast or significant change

Wind
  • Variable at 4 KTS
Cloud Levels
  • Broken at 2,500' AGL

Feb-26@
13:00 UTC

Feb-26 @ 13:00 UTC

Feb-26@
18:00 UTC

Feb-26 @ 18:00 UTC

FM261300 31007KT P6SM VCSH BKN015

From

From Standard forecast or significant change

Wind
  • 310° at 7 KTS
Cloud Levels
  • Broken at 1,500' AGL

Feb-26@
18:00 UTC

Feb-26 @ 18:00 UTC

Feb-26@
21:00 UTC

Feb-26 @ 21:00 UTC

FM261800 31012KT P6SM BKN040

From

From Standard forecast or significant change

Wind
  • 310° at 12 KTS
Cloud Levels
  • Broken at 4,000' AGL

Feb-26@
21:00 UTC

Feb-26 @ 21:00 UTC

Feb-27@
00:00 UTC

Feb-27 @ 00:00 UTC

FM262100 32012G21KT P6SM BKN070

From

From Standard forecast or significant change

Wind
  • 320° at 12 KTS
  • {Gusting to 21 KTS
Cloud Levels
  • Broken at 7,000' AGL

Feb-27@
00:00 UTC

Feb-27 @ 00:00 UTC

Feb-27@
06:00 UTC

Feb-27 @ 06:00 UTC

FM270000 33009KT P6SM SCT050

From

From Standard forecast or significant change

Wind
  • 330° at 9 KTS
Cloud Levels
  • Scattered at 5,000' AGL